createdAt,value
2022-09-28T00:01:13.753Z,284.83
2022-09-28T00:03:40.379Z,284.10
2022-09-28T00:06:10.081Z,288.83
2022-09-28T00:08:37.373Z,288.85
2022-09-28T00:11:06.507Z,283.27
2022-09-28T00:13:34.105Z,286.13
2022-09-28T00:16:10.617Z,276.30
2022-09-28T00:18:37.531Z,278.27
2022-09-28T00:21:12.285Z,285.80
2022-09-28T00:23:59.996Z,276.15
2022-09-28T00:26:28.083Z,287.63
2022-09-28T00:28:56.879Z,275.60
2022-09-28T00:31:25.065Z,277.37
2022-09-28T00:33:53.295Z,286.67
2022-09-28T00:36:19.892Z,284.67
2022-09-28T00:38:46.549Z,282.63
2022-09-28T00:41:14.123Z,279.90
2022-09-28T00:43:41.373Z,281.43
2022-09-28T00:46:15.316Z,281.98
2022-09-28T00:48:54.813Z,286.57
2022-09-28T00:51:22.715Z,286.30
2022-09-28T00:53:51.213Z,280.25
2022-09-28T00:56:21.684Z,287.40
2022-09-28T00:58:52.973Z,290.30
2022-09-28T01:01:19.521Z,282.63
2022-09-28T01:03:48.800Z,284.35
2022-09-28T01:06:20.586Z,292.48
2022-09-28T01:08:50.826Z,287.92
2022-09-28T01:11:19.613Z,285.43
2022-09-28T01:13:50.053Z,290.08
2022-09-28T01:16:33.818Z,294.50
2022-09-28T01:19:34.474Z,282.52
2022-09-28T01:22:26.395Z,283.98
2022-09-28T01:25:20.969Z,289.48
2022-09-28T01:27:54.881Z,291.08
2022-09-28T01:30:22.245Z,284.45
2022-09-28T01:32:56.000Z,290.50
2022-09-28T01:35:44.388Z,289.35
2022-09-28T01:38:26.778Z,285.33
2022-09-28T01:40:55.731Z,282.48
2022-09-28T01:43:30.368Z,283.35
2022-09-28T01:46:05.048Z,281.33
2022-09-28T01:48:51.441Z,280.45
2022-09-28T01:51:42.438Z,293.70
2022-09-28T01:54:28.222Z,287.98
2022-09-28T01:57:00.591Z,280.80
2022-09-28T01:59:30.827Z,292.08
2022-09-28T02:02:18.768Z,288.70
2022-09-28T02:04:55.702Z,285.43
2022-09-28T02:07:42.459Z,286.80
2022-09-28T02:10:22.094Z,294.98
2022-09-28T02:12:59.513Z,297.58
2022-09-28T02:16:01.401Z,293.20
2022-09-28T02:18:29.471Z,296.23
2022-09-28T02:21:07.050Z,303.05
2022-09-28T02:23:37.362Z,298.52
2022-09-28T02:26:10.313Z,292.60
2022-09-28T02:28:37.284Z,290.08
2022-09-28T02:31:07.320Z,288.50
2022-09-28T02:33:41.286Z,287.73
2022-09-28T02:36:08.547Z,280.48
2022-09-28T02:38:38.195Z,284.58
2022-09-28T02:41:31.722Z,285.85
2022-09-28T02:44:26.567Z,286.95
2022-09-28T02:47:08.716Z,287.70
2022-09-28T02:49:49.498Z,289.77
2022-09-28T02:52:31.358Z,295.58
2022-09-28T02:55:07.278Z,293.33
2022-09-28T02:57:45.925Z,299.35
2022-09-28T03:00:20.138Z,303.50
2022-09-28T03:03:22.172Z,309.10
2022-09-28T03:06:03.909Z,306.65
2022-09-28T03:08:54.917Z,304.77
2022-09-28T03:11:37.752Z,299.05
2022-09-28T03:14:05.545Z,298.88
2022-09-28T03:16:46.542Z,301.58
2022-09-28T03:19:14.022Z,296.77
2022-09-28T03:21:41.513Z,298.50
2022-09-28T03:24:11.161Z,302.50
2022-09-28T03:26:41.191Z,304.60
2022-09-28T03:29:08.359Z,306.27
2022-09-28T03:31:37.986Z,300.23
2022-09-28T03:34:04.724Z,294.80
2022-09-28T03:36:32.092Z,301.00
2022-09-28T03:38:59.659Z,294.77
2022-09-28T03:41:30.141Z,298.50
2022-09-28T03:43:57.036Z,298.40
2022-09-28T03:46:26.592Z,299.85
2022-09-28T03:48:58.471Z,298.05
2022-09-28T03:51:27.784Z,296.90
2022-09-28T03:53:54.889Z,304.87
2022-09-28T03:56:21.844Z,296.15
2022-09-28T03:58:48.907Z,292.60
2022-09-28T04:01:17.532Z,296.98
2022-09-28T04:03:47.176Z,281.37
2022-09-28T04:06:14.842Z,287.15
2022-09-28T04:08:43.663Z,279.95
2022-09-28T04:11:11.362Z,287.20
2022-09-28T04:13:38.307Z,284.27
2022-09-28T04:16:08.041Z,279.38
2022-09-28T04:18:36.161Z,276.20
2022-09-28T04:21:19.454Z,278.27
2022-09-28T04:23:53.440Z,267.77
2022-09-28T04:26:24.415Z,272.42
2022-09-28T04:29:10.290Z,273.08
2022-09-28T04:31:56.470Z,275.40
2022-09-28T04:34:37.138Z,275.63
2022-09-28T04:37:05.509Z,267.90
2022-09-28T04:39:32.206Z,274.90
2022-09-28T04:42:01.301Z,269.63
2022-09-28T04:44:28.694Z,268.02
2022-09-28T04:47:04.201Z,264.58
2022-09-28T04:49:33.754Z,259.70
2022-09-28T04:52:12.557Z,247.93
2022-09-28T04:54:43.356Z,243.07
2022-09-28T04:57:11.612Z,245.98
2022-09-28T04:59:39.641Z,246.43
2022-09-28T05:02:07.047Z,245.82
2022-09-28T05:05:09.439Z,254.25
2022-09-28T05:07:58.707Z,253.85
2022-09-28T05:10:25.369Z,252.77
2022-09-28T05:12:53.113Z,281.77
2022-09-28T05:15:19.793Z,254.55
2022-09-28T05:17:47.725Z,259.63
2022-09-28T05:20:39.613Z,258.30
2022-09-28T05:23:08.395Z,258.73
2022-09-28T05:25:36.459Z,263.70
2022-09-28T05:28:20.193Z,261.35
2022-09-28T05:31:07.711Z,289.35
2022-09-28T05:33:57.290Z,243.23
2022-09-28T05:36:26.903Z,249.15
2022-09-28T05:38:54.034Z,245.20
2022-09-28T05:41:20.723Z,247.23
2022-09-28T05:43:47.418Z,238.40
2022-09-28T05:46:14.559Z,239.20
2022-09-28T05:48:41.688Z,272.70
2022-09-28T05:51:10.115Z,247.25
2022-09-28T05:53:39.654Z,249.18
2022-09-28T05:56:07.138Z,248.45
2022-09-28T05:58:36.541Z,246.50
2022-09-28T06:01:03.192Z,238.75
2022-09-28T06:03:30.468Z,266.10
2022-09-28T06:05:59.834Z,261.58
2022-09-28T06:08:26.484Z,243.55
2022-09-28T06:11:06.777Z,250.23
2022-09-28T06:13:34.343Z,243.50
2022-09-28T06:16:01.322Z,273.85
2022-09-28T06:18:28.240Z,227.63
2022-09-28T06:21:19.081Z,256.52
2022-09-28T06:23:49.141Z,238.20
2022-09-28T06:26:17.266Z,235.57
2022-09-28T06:28:44.766Z,226.98
2022-09-28T06:31:11.804Z,247.32
2022-09-28T06:33:46.164Z,241.85
2022-09-28T06:36:13.464Z,233.23
2022-09-28T06:38:40.336Z,232.38
2022-09-28T06:41:07.192Z,220.52
2022-09-28T06:43:35.143Z,224.68
2022-09-28T06:46:31.483Z,218.98
2022-09-28T06:49:30.349Z,214.75
2022-09-28T06:52:20.113Z,210.75
2022-09-28T06:55:06.578Z,225.82
2022-09-28T06:57:44.606Z,222.23
2022-09-28T07:00:12.086Z,228.00
2022-09-28T07:02:38.871Z,224.93
2022-09-28T07:05:29.889Z,232.40
2022-09-28T07:08:26.380Z,237.43
2022-09-28T07:11:12.443Z,239.68
2022-09-28T07:13:52.153Z,235.90
2022-09-28T07:16:26.929Z,239.48
2022-09-28T07:18:55.292Z,229.75
2022-09-28T07:21:28.770Z,228.48
2022-09-28T07:23:57.069Z,221.80
2022-09-28T07:26:24.700Z,219.80
2022-09-28T07:29:14.622Z,212.70
2022-09-28T07:32:01.725Z,210.27
2022-09-28T07:35:07.971Z,209.55
2022-09-28T07:37:45.891Z,235.93
2022-09-28T07:40:31.129Z,233.77
2022-09-28T07:43:07.049Z,232.23
2022-09-28T07:45:36.776Z,228.75
2022-09-28T07:48:04.569Z,225.90
2022-09-28T07:50:52.821Z,226.70
2022-09-28T07:53:54.814Z,232.65
2022-09-28T07:56:47.870Z,231.82
2022-09-28T07:59:39.670Z,228.02
2022-09-28T08:02:25.977Z,225.83
2022-09-28T08:04:56.320Z,228.30
2022-09-28T08:07:24.237Z,224.27
2022-09-28T08:09:58.135Z,222.32
2022-09-28T08:12:27.737Z,223.23
2022-09-28T08:15:19.726Z,232.00
2022-09-28T08:17:53.062Z,229.55
2022-09-28T08:20:41.445Z,218.13
2022-09-28T08:23:09.558Z,228.13
2022-09-28T08:25:53.988Z,224.47
2022-09-28T08:28:23.216Z,218.18
2022-09-28T08:30:54.489Z,221.98
2022-09-28T08:33:45.082Z,210.27
2022-09-28T08:36:30.473Z,217.75
2022-09-28T08:39:15.618Z,251.45
2022-09-28T08:42:28.205Z,224.75
2022-09-28T08:45:26.382Z,224.15
2022-09-28T08:48:52.216Z,219.32
2022-09-28T08:52:04.639Z,228.47
2022-09-28T08:54:51.769Z,227.77
2022-09-28T08:57:39.437Z,226.93
2022-09-28T09:00:10.994Z,212.93
2022-09-28T09:02:39.913Z,228.57
2022-09-28T09:05:21.215Z,209.15
2022-09-28T09:08:07.765Z,214.05
2022-09-28T09:10:54.954Z,227.05
2022-09-28T09:14:03.027Z,213.55
2022-09-28T09:16:42.318Z,207.70
2022-09-28T09:19:50.580Z,203.73
2022-09-28T09:22:41.314Z,200.98
2022-09-28T09:25:29.068Z,191.05
2022-09-28T09:28:23.676Z,181.07
2022-09-28T09:30:56.897Z,189.53
2022-09-28T09:33:46.202Z,188.30
2022-09-28T09:37:11.307Z,177.80
2022-09-28T09:40:42.907Z,192.52
2022-09-28T09:44:05.587Z,199.95
2022-09-28T09:47:15.341Z,200.20
2022-09-28T09:50:05.527Z,178.87
2022-09-28T09:52:57.461Z,166.15
2022-09-28T09:55:31.015Z,177.70
2022-09-28T09:58:54.120Z,175.88
2022-09-28T10:01:50.412Z,158.70
2022-09-28T10:05:00.356Z,200.67
2022-09-28T10:08:10.568Z,167.27
2022-09-28T10:10:52.284Z,151.15
2022-09-28T10:13:21.563Z,148.93
2022-09-28T10:15:54.451Z,156.50
2022-09-28T10:21:31.987Z,150.43
2022-09-28T10:27:59.788Z,156.73
2022-09-28T10:33:59.095Z,165.63
2022-09-28T10:36:26.335Z,183.05
2022-09-28T10:38:54.506Z,175.67
2022-09-28T10:41:32.325Z,181.43
2022-09-28T10:44:11.369Z,155.53
2022-09-28T10:47:09.962Z,166.98
2022-09-28T10:49:46.858Z,175.00
2022-09-28T10:52:40.386Z,166.30
2022-09-28T10:55:32.414Z,190.50
2022-09-28T10:58:17.372Z,167.53
2022-09-28T11:00:45.186Z,167.48
2022-09-28T11:03:29.184Z,177.07
2022-09-28T11:06:08.633Z,171.63
2022-09-28T11:08:42.116Z,170.00
2022-09-28T11:11:19.468Z,185.18
2022-09-28T11:14:01.266Z,180.10
2022-09-28T11:16:37.700Z,173.70
2022-09-28T11:19:21.196Z,176.68
2022-09-28T11:24:37.941Z,156.85
2022-09-28T11:27:05.508Z,164.63
2022-09-28T11:29:38.909Z,167.13
2022-09-28T11:32:44.771Z,158.70
2022-09-28T11:35:46.394Z,176.48
2022-09-28T11:44:08.160Z,154.77
2022-09-28T12:05:37.161Z,159.10
2022-09-28T12:08:12.083Z,155.35
2022-09-28T12:11:12.781Z,169.23
2022-09-28T12:14:21.671Z,181.45
2022-09-28T12:17:07.942Z,183.27
2022-09-28T12:19:49.475Z,153.43
2022-09-28T12:22:59.429Z,160.80
2022-09-28T13:34:50.917Z,171.90
2022-09-28T13:37:26.456Z,182.15
2022-09-28T13:39:59.642Z,175.27
2022-09-28T13:48:17.539Z,162.38
2022-09-28T13:51:10.805Z,175.38
2022-09-28T13:54:08.061Z,184.00
2022-09-28T14:05:23.071Z,190.38
2022-09-28T14:08:08.625Z,176.10
2022-09-28T14:11:25.013Z,188.82
2022-09-28T14:14:05.775Z,175.57
2022-09-28T14:57:08.473Z,198.43
2022-09-28T14:59:46.137Z,190.13
2022-09-28T15:02:20.197Z,191.13
2022-09-28T15:05:02.475Z,175.65
2022-09-28T15:07:34.507Z,183.80
2022-09-28T15:10:02.647Z,184.45
2022-09-28T15:12:31.167Z,204.07
2022-09-28T15:18:05.265Z,176.05
2022-09-28T15:20:44.866Z,174.13
2022-09-28T15:23:27.330Z,179.18
2022-09-28T15:25:56.135Z,206.85
2022-09-28T15:28:33.794Z,185.98
2022-09-28T15:31:03.452Z,175.80
2022-09-28T15:33:52.071Z,183.45
2022-09-28T15:36:24.522Z,180.23
2022-09-28T15:38:59.693Z,176.43
2022-09-28T15:41:30.003Z,173.67
2022-09-28T15:47:31.456Z,200.63
2022-09-28T15:50:05.392Z,184.73
2022-09-28T15:55:33.114Z,173.20
2022-09-28T15:58:19.643Z,203.15
2022-09-28T16:00:52.270Z,214.70
2022-09-28T16:03:29.328Z,204.02
2022-09-28T16:05:59.026Z,197.25
2022-09-28T16:08:45.273Z,218.30
2022-09-28T16:11:20.353Z,207.80
2022-09-28T16:14:06.178Z,221.23
2022-09-28T16:16:50.747Z,261.27
2022-09-28T16:19:40.495Z,211.63
2022-09-28T16:22:14.030Z,177.13
2022-09-28T16:24:42.703Z,191.05
2022-09-28T16:27:30.505Z,211.07
2022-09-28T16:30:04.738Z,212.55
2022-09-28T16:32:38.520Z,239.27
2022-09-28T16:35:11.224Z,217.13
2022-09-28T16:37:40.878Z,224.57
2022-09-28T16:40:08.886Z,219.35
2022-09-28T16:42:36.703Z,221.05
2022-09-28T16:45:05.245Z,221.77
2022-09-28T16:47:34.164Z,223.20
2022-09-28T16:50:03.958Z,226.07
2022-09-28T16:52:49.310Z,218.73
2022-09-28T16:55:36.226Z,229.30
2022-09-28T16:58:04.642Z,202.02
2022-09-28T17:00:31.840Z,192.75
2022-09-28T17:02:59.200Z,208.77
2022-09-28T17:05:26.317Z,225.30
2022-09-28T17:08:04.186Z,216.48
2022-09-28T17:11:09.382Z,228.07
2022-09-28T17:13:35.971Z,255.73
2022-09-28T17:16:18.763Z,252.05
2022-09-28T17:18:46.039Z,276.67
2022-09-28T17:21:18.810Z,258.52
2022-09-28T17:23:47.454Z,268.38
2022-09-28T17:26:29.253Z,279.33
2022-09-28T17:28:55.769Z,278.80
2022-09-28T17:31:22.749Z,272.52
2022-09-28T17:33:50.065Z,301.17
2022-09-28T17:36:19.742Z,281.45
2022-09-28T17:38:51.803Z,284.85
2022-09-28T17:41:20.802Z,293.75
2022-09-28T17:43:48.349Z,295.40
2022-09-28T17:46:37.005Z,274.88
2022-09-28T17:49:06.209Z,269.97
2022-09-28T17:51:39.131Z,271.58
2022-09-28T17:54:07.973Z,268.95
2022-09-28T17:56:35.808Z,285.02
2022-09-28T17:59:06.092Z,272.73
2022-09-28T18:01:34.479Z,261.38
2022-09-28T18:04:03.049Z,247.57
2022-09-28T18:06:29.837Z,259.33
2022-09-28T18:08:56.425Z,233.32
2022-09-28T18:11:23.365Z,234.25
2022-09-28T18:13:50.052Z,236.37
2022-09-28T18:16:17.198Z,245.35
2022-09-28T18:18:43.826Z,240.77
2022-09-28T18:21:10.509Z,248.25
2022-09-28T18:23:38.324Z,252.23
2022-09-28T18:26:13.069Z,246.20
2022-09-28T18:28:40.210Z,243.65
2022-09-28T18:31:12.162Z,237.33
2022-09-28T18:33:39.610Z,233.90
2022-09-28T18:36:07.348Z,243.75
2022-09-28T18:38:38.159Z,260.73
2022-09-28T18:43:49.014Z,268.17
2022-09-28T18:46:17.627Z,271.17
2022-09-28T18:48:44.597Z,250.75
2022-09-28T18:51:12.406Z,273.92
2022-09-28T18:53:40.039Z,243.10
2022-09-28T18:56:12.025Z,238.23
2022-09-28T18:58:40.178Z,252.18
2022-09-28T19:01:28.827Z,251.32
2022-09-28T19:03:55.932Z,249.75
2022-09-28T19:06:22.463Z,252.93
2022-09-28T19:08:55.481Z,259.10
2022-09-28T19:11:23.243Z,254.80
2022-09-28T19:13:50.377Z,256.60
2022-09-28T19:16:20.827Z,250.13
2022-09-28T19:18:48.172Z,245.63
2022-09-28T19:21:15.181Z,232.98
2022-09-28T19:23:49.037Z,237.88
2022-09-28T19:26:20.375Z,239.13
2022-09-28T19:28:47.573Z,231.47
2022-09-28T19:31:14.205Z,246.93
2022-09-28T19:33:41.744Z,245.73
2022-09-28T19:36:11.127Z,247.52
2022-09-28T19:38:39.211Z,250.02
2022-09-28T19:41:37.791Z,258.95
2022-09-28T19:44:13.050Z,254.52
2022-09-28T19:46:40.709Z,243.65
2022-09-28T19:49:10.514Z,262.85
2022-09-28T19:51:46.951Z,241.68
2022-09-28T19:54:30.995Z,246.43
2022-09-28T19:56:59.866Z,305.67
2022-09-28T19:59:26.452Z,291.58
2022-09-28T20:01:56.230Z,312.92
2022-09-28T20:04:23.209Z,285.95
2022-09-28T20:06:52.790Z,283.52
2022-09-28T20:09:19.650Z,320.90
2022-09-28T20:11:46.741Z,318.35
2022-09-28T20:14:18.567Z,352.67
2022-09-28T20:16:48.465Z,308.65
2022-09-28T20:19:15.441Z,293.60
2022-09-28T20:21:42.044Z,307.80
2022-09-28T20:24:11.229Z,309.73
2022-09-28T20:26:37.990Z,345.92
2022-09-28T20:29:06.646Z,339.42
2022-09-28T20:31:40.126Z,336.15
2022-09-28T20:34:07.139Z,328.02
2022-09-28T20:36:34.185Z,327.33
2022-09-28T20:39:01.993Z,332.95
2022-09-28T20:41:35.653Z,338.40
2022-09-28T20:44:05.788Z,347.85
2022-09-28T20:46:36.550Z,330.17
2022-09-28T20:49:04.209Z,304.23
2022-09-28T20:51:31.018Z,299.08
2022-09-28T20:53:59.023Z,289.85
2022-09-28T20:56:38.709Z,294.83
2022-09-28T20:59:08.431Z,287.00
2022-09-28T21:01:35.393Z,298.25
2022-09-28T21:04:04.583Z,282.58
2022-09-28T21:06:34.311Z,286.63
2022-09-28T21:09:01.230Z,287.80
2022-09-28T21:11:29.638Z,291.90
2022-09-28T21:14:02.157Z,303.67
2022-09-28T21:16:31.248Z,313.85
2022-09-28T21:18:58.228Z,324.30
2022-09-28T21:21:26.121Z,327.52
2022-09-28T21:23:55.312Z,324.70
2022-09-28T21:26:25.057Z,314.58
2022-09-28T21:29:03.577Z,322.85
2022-09-28T21:31:38.492Z,319.17
2022-09-28T21:34:05.635Z,319.92
2022-09-28T21:36:32.336Z,330.13
2022-09-28T21:38:58.927Z,333.40
2022-09-28T21:41:25.753Z,334.15
2022-09-28T21:43:52.585Z,327.88
2022-09-28T21:46:19.377Z,315.15
2022-09-28T21:48:46.043Z,335.35
2022-09-28T21:51:19.252Z,337.17
2022-09-28T21:53:45.848Z,326.00
2022-09-28T21:56:13.035Z,352.73
2022-09-28T21:58:42.087Z,352.10
2022-09-28T22:01:20.534Z,364.95
2022-09-28T22:03:50.431Z,348.80
2022-09-28T22:06:18.954Z,330.00
2022-09-28T22:08:46.882Z,336.23
2022-09-28T22:11:18.887Z,323.63
2022-09-28T22:13:49.998Z,322.30
2022-09-28T22:16:18.775Z,319.95
2022-09-28T22:18:46.071Z,316.90
2022-09-28T22:21:15.537Z,307.85
2022-09-28T22:23:42.536Z,333.15
2022-09-28T22:26:28.482Z,347.83
2022-09-28T22:28:59.712Z,363.63
2022-09-28T22:31:29.395Z,339.55
2022-09-28T22:33:56.478Z,364.00
2022-09-28T22:36:23.858Z,348.65
2022-09-28T22:38:50.917Z,342.30
2022-09-28T22:41:20.883Z,353.05
2022-09-28T22:43:57.780Z,350.95
2022-09-28T22:46:29.368Z,347.45
2022-09-28T22:48:58.215Z,351.65
2022-09-28T22:51:27.335Z,358.63
2022-09-28T22:53:54.292Z,352.15
2022-09-28T22:56:20.874Z,363.20
2022-09-28T22:58:47.665Z,358.75
2022-09-28T23:01:20.294Z,355.20
2022-09-28T23:03:48.140Z,360.37
2022-09-28T23:06:21.400Z,356.75
2022-09-28T23:08:51.399Z,358.35
2022-09-28T23:11:19.019Z,348.42
2022-09-28T23:13:50.439Z,341.10
2022-09-28T23:16:17.496Z,342.70
2022-09-28T23:18:44.181Z,346.95
2022-09-28T23:21:19.945Z,349.20
2022-09-28T23:23:52.351Z,348.92
2022-09-28T23:26:25.010Z,345.52
2022-09-28T23:28:52.728Z,343.40
2022-09-28T23:31:31.610Z,336.35
2022-09-28T23:34:06.701Z,340.45
2022-09-28T23:36:35.864Z,325.40
2022-09-28T23:39:03.117Z,320.70
2022-09-28T23:41:35.489Z,314.30
2022-09-28T23:44:02.306Z,316.67
2022-09-28T23:46:29.115Z,312.75
2022-09-28T23:48:55.834Z,313.73
2022-09-28T23:51:22.458Z,320.55
2022-09-28T23:53:49.092Z,323.33
2022-09-28T23:56:15.777Z,325.88
2022-09-28T23:58:42.712Z,322.40
